createdAt,value
2023-04-27T00:05:02.812Z,2
2023-04-27T00:15:02.429Z,1
2023-04-27T00:25:02.406Z,1
2023-04-27T00:35:02.330Z,1
2023-04-27T00:45:02.261Z,1
2023-04-27T00:55:02.185Z,1
2023-04-27T01:05:02.080Z,1
2023-04-27T01:15:02.011Z,1
2023-04-27T01:25:01.982Z,1
2023-04-27T01:35:01.915Z,1
2023-04-27T01:45:01.848Z,1
2023-04-27T01:55:01.808Z,1
2023-04-27T02:05:01.726Z,1
2023-04-27T02:15:01.566Z,1
2023-04-27T02:25:01.592Z,1
2023-04-27T02:35:01.504Z,1
2023-04-27T02:45:01.445Z,1
2023-04-27T02:55:01.342Z,3
2023-04-27T03:05:01.283Z,13
2023-04-27T03:15:01.223Z,20
2023-04-27T03:25:01.161Z,27
2023-04-27T03:35:01.022Z,30
2023-04-27T03:45:01.035Z,35
2023-04-27T03:55:00.959Z,20
2023-04-27T04:05:01.109Z,20
2023-04-27T04:15:00.725Z,22
2023-04-27T04:25:00.698Z,27
2023-04-27T04:35:02.385Z,34
2023-04-27T04:45:00.619Z,37
2023-04-27T04:55:00.564Z,48
2023-04-27T05:05:00.423Z,68
2023-04-27T05:15:00.358Z,71
2023-04-27T05:25:00.405Z,78
2023-04-27T05:35:00.229Z,84
2023-04-27T05:45:00.222Z,98
2023-04-27T05:55:00.112Z,99
2023-04-27T06:05:00.245Z,99
2023-04-27T06:15:00.221Z,99
2023-04-27T06:24:59.970Z,99
2023-04-27T06:34:59.828Z,99
2023-04-27T06:44:59.784Z,99
2023-04-27T06:54:59.684Z,99
2023-04-27T07:04:59.603Z,99
2023-04-27T07:14:59.475Z,99
2023-04-27T07:24:59.479Z,99
2023-04-27T07:34:59.389Z,99
2023-04-27T07:44:59.347Z,99
2023-04-27T07:54:59.192Z,99
2023-04-27T08:04:59.736Z,99
2023-04-27T08:14:59.141Z,99
2023-04-27T08:24:58.972Z,99
2023-04-27T08:34:58.908Z,99
2023-04-27T08:44:58.979Z,99
2023-04-27T08:54:58.844Z,99
2023-04-27T09:04:59.043Z,99
2023-04-27T09:14:58.794Z,99
2023-04-27T09:24:58.714Z,99
2023-04-27T09:34:58.615Z,99
2023-04-27T09:44:58.486Z,99
2023-04-27T09:54:58.378Z,99
2023-04-27T10:04:58.415Z,99
2023-04-27T10:14:58.346Z,99
2023-04-27T10:24:58.221Z,99
2023-04-27T10:34:58.429Z,99
2023-04-27T10:44:58.101Z,99
2023-04-27T10:54:58.026Z,99
2023-04-27T11:04:58.141Z,99
2023-04-27T11:14:59.166Z,99
2023-04-27T11:24:57.898Z,99
2023-04-27T11:34:59.589Z,99
2023-04-27T11:44:57.640Z,99
2023-04-27T11:54:57.663Z,99
2023-04-27T12:04:57.688Z,99
2023-04-27T12:14:57.430Z,99
2023-04-27T12:24:57.424Z,1
2023-04-27T12:34:57.349Z,1
2023-04-27T12:44:57.230Z,1
2023-04-27T12:54:57.254Z,1
2023-04-27T13:04:57.267Z,1
2023-04-27T13:14:57.076Z,1
2023-04-27T13:24:56.986Z,1
2023-04-27T13:34:56.855Z,1
2023-04-27T13:44:56.811Z,1
2023-04-27T13:54:56.894Z,1
2023-04-27T14:04:56.867Z,1
2023-04-27T14:14:58.462Z,1
2023-04-27T14:24:56.583Z,1
2023-04-27T14:34:56.546Z,1
2023-04-27T14:44:56.447Z,1
2023-04-27T14:54:57.374Z,1
2023-04-27T15:04:56.573Z,1
2023-04-27T15:14:56.273Z,1
2023-04-27T15:24:56.116Z,1
2023-04-27T15:34:56.398Z,1
2023-04-27T15:44:55.985Z,1
2023-04-27T15:54:55.898Z,1
2023-04-27T16:04:55.889Z,1
2023-04-27T16:14:55.784Z,1
2023-04-27T16:24:55.820Z,1
2023-04-27T16:34:55.705Z,1
2023-04-27T16:44:55.563Z,1
2023-04-27T16:54:55.492Z,1
2023-04-27T17:04:55.466Z,1
2023-04-27T17:14:55.400Z,1
2023-04-27T17:24:55.358Z,1
2023-04-27T17:34:55.208Z,1
2023-04-27T17:44:55.210Z,1
2023-04-27T17:54:55.170Z,1
2023-04-27T18:04:55.026Z,1
2023-04-27T18:14:55.527Z,1
2023-04-27T18:24:54.993Z,1
2023-04-27T18:34:54.921Z,1
2023-04-27T18:44:54.847Z,1
2023-04-27T18:54:54.684Z,1
2023-04-27T19:05:10.380Z,1
2023-04-27T19:14:54.723Z,1
2023-04-27T19:24:54.577Z,1
2023-04-27T19:34:54.435Z,1
2023-04-27T19:44:54.378Z,1
2023-04-27T19:54:54.371Z,1
2023-04-27T20:04:54.677Z,1
2023-04-27T20:14:54.188Z,1
2023-04-27T20:24:54.133Z,1
2023-04-27T20:34:54.198Z,1
2023-04-27T20:44:54.067Z,1
2023-04-27T20:54:54.022Z,1
2023-04-27T21:04:53.937Z,1
2023-04-27T21:14:53.770Z,1
2023-04-27T21:24:53.757Z,1
2023-04-27T21:34:53.695Z,1
2023-04-27T21:44:53.589Z,1
2023-04-27T21:54:53.522Z,1
2023-04-27T22:04:53.598Z,1
2023-04-27T22:14:53.435Z,1
2023-04-27T22:24:53.372Z,1
2023-04-27T22:34:53.286Z,99
2023-04-27T22:44:53.221Z,99
2023-04-27T22:54:53.135Z,95
2023-04-27T23:04:53.024Z,74
2023-04-27T23:14:52.924Z,51
2023-04-27T23:24:52.918Z,53
2023-04-27T23:34:52.789Z,32
2023-04-27T23:44:52.752Z,26
2023-04-27T23:54:52.667Z,20
